Time;durP1;ratioP1;P1;durP2;ratioP2;P2;SDS_P1;SDS_P2;PMS_P1;PMS_P2;Temp;Humidity;BMP_temperature;BMP_pressure;BME280_temperature;BME280_humidity;BME280_pressure;Samples;Min_cycle;Max_cycle;Signal;HPM_P1;HPM_P2
2020/12/13 00:01:44;;;;;;;24.20;15.23;;;;;;;;;;5036496;28;20025;-71
2020/12/13 00:04:10;;;;;;;23.15;14.63;;;;;;;;;;5035271;28;20500;-71
2020/12/13 00:06:35;;;;;;;25.77;15.27;;;;;;;;;;5036252;28;20037;-71
2020/12/13 00:09:02;;;;;;;20.73;13.90;;;;;;;;;;5036170;28;20401;-70
2020/12/13 00:11:28;;;;;;;22.20;14.15;;;;;;;;;;5036042;28;20056;-70
2020/12/13 00:13:54;;;;;;;26.83;18.08;;;;;;;;;;5036051;28;20490;-69
2020/12/13 00:16:19;;;;;;;31.90;17.88;;;;;;;;;;5036106;28;20037;-69
2020/12/13 00:18:45;;;;;;;27.25;16.98;;;;;;;;;;5033965;28;20018;-69
2020/12/13 00:21:14;;;;;;;23.05;15.43;;;;;;;;;;5035910;28;20033;-69
2020/12/13 00:23:40;;;;;;;19.58;13.75;;;;;;;;;;5036152;28;20040;-69
2020/12/13 00:26:09;;;;;;;22.48;13.93;;;;;;;;;;5036149;28;20036;-68
2020/12/13 00:28:35;;;;;;;22.20;14.55;;;;;;;;;;5035989;28;20025;-68
2020/12/13 00:31:01;;;;;;;22.45;14.98;;;;;;;;;;5035751;28;20025;-69
2020/12/13 00:33:26;;;;;;;22.63;14.82;;;;;;;;;;5035688;28;20087;-69
2020/12/13 00:35:55;;;;;;;24.20;14.80;;;;;;;;;;5034272;28;20537;-68
2020/12/13 00:38:21;;;;;;;24.48;14.65;;;;;;;;;;5035747;28;20459;-69
2020/12/13 00:40:49;;;;;;;22.92;14.20;;;;;;;;;;5035517;28;20116;-71
2020/12/13 00:43:15;;;;;;;24.38;14.93;;;;;;;;;;5035505;28;20021;-68
2020/12/13 00:45:41;;;;;;;21.30;13.63;;;;;;;;;;5035636;28;20439;-70
2020/12/13 00:48:09;;;;;;;19.92;12.93;;;;;;;;;;5035556;28;20033;-70
2020/12/13 00:50:39;;;;;;;22.20;13.65;;;;;;;;;;5033804;28;20025;-71
2020/12/13 00:53:05;;;;;;;21.33;13.48;;;;;;;;;;5034658;28;20477;-70
2020/12/13 00:55:31;;;;;;;20.15;13.75;;;;;;;;;;5034102;28;20022;-70
2020/12/13 00:57:57;;;;;;;20.92;13.68;;;;;;;;;;5034030;28;20352;-70
2020/12/13 01:00:23;;;;;;;22.50;13.60;;;;;;;;;;5035391;28;20079;-69
2020/12/13 01:02:49;;;;;;;22.42;15.18;;;;;;;;;;5035240;28;20021;-67
2020/12/13 01:05:15;;;;;;;22.50;13.85;;;;;;;;;;5035412;28;20033;-69
2020/12/13 01:07:42;;;;;;;20.48;13.57;;;;;;;;;;5033955;28;20013;-68
2020/12/13 01:10:08;;;;;;;22.08;14.10;;;;;;;;;;5034932;28;20391;-68
2020/12/13 01:12:34;;;;;;;22.58;14.77;;;;;;;;;;5033692;28;20087;-68
2020/12/13 01:14:59;;;;;;;21.25;13.57;;;;;;;;;;5035084;28;20489;-68
2020/12/13 01:17:26;;;;;;;22.13;14.15;;;;;;;;;;5035088;28;20045;-68
2020/12/13 01:19:51;;;;;;;23.67;14.35;;;;;;;;;;5035116;28;20026;-71
2020/12/13 01:22:17;;;;;;;24.23;14.98;;;;;;;;;;5033834;28;20467;-71
2020/12/13 01:24:42;;;;;;;23.73;15.73;;;;;;;;;;5034851;28;20037;-71
2020/12/13 01:27:10;;;;;;;23.80;16.10;;;;;;;;;;5034824;28;20029;-69
2020/12/13 01:29:35;;;;;;;25.20;14.73;;;;;;;;;;5034507;28;20487;-69
2020/12/13 01:32:02;;;;;;;28.65;16.77;;;;;;;;;;5033570;28;20056;-69
2020/12/13 01:34:27;;;;;;;32.53;17.15;;;;;;;;;;5034640;28;20029;-70
2020/12/13 01:36:53;;;;;;;51.90;22.58;;;;;;;;;;5034423;28;20528;-70
2020/12/13 01:39:18;;;;;;;35.88;17.73;;;;;;;;;;5034876;28;20033;-71
2020/12/13 01:41:44;;;;;;;28.17;16.42;;;;;;;;;;5034877;28;20480;-71
2020/12/13 01:44:10;;;;;;;28.95;16.85;;;;;;;;;;5033480;28;20033;-69
2020/12/13 01:46:37;;;;;;;27.27;15.95;;;;;;;;;;5033029;28;20025;-69
2020/12/13 01:49:05;;;;;;;22.65;14.23;;;;;;;;;;5034567;28;20044;-69
2020/12/13 01:54:23;;;;;;;22.70;14.05;;;;;;;;;;5034635;28;20034;-68
2020/12/13 01:56:52;;;;;;;23.13;13.32;;;;;;;;;;5033832;28;20491;-69
2020/12/13 01:59:18;;;;;;;19.02;13.35;;;;;;;;;;5034198;28;20034;-69
2020/12/13 02:01:46;;;;;;;21.17;13.80;;;;;;;;;;5034150;28;20045;-69
2020/12/13 02:04:14;;;;;;;19.10;13.23;;;;;;;;;;5036644;28;20479;-69
2020/12/13 02:06:41;;;;;;;22.00;13.23;;;;;;;;;;5045575;28;20104;-69
2020/12/13 02:09:08;;;;;;;19.23;12.70;;;;;;;;;;5033875;28;20112;-67
2020/12/13 02:11:34;;;;;;;20.05;13.13;;;;;;;;;;5033780;28;20017;-67
2020/12/13 02:13:59;;;;;;;20.98;12.95;;;;;;;;;;5033908;28;20032;-68
2020/12/13 02:16:25;;;;;;;19.02;12.45;;;;;;;;;;5033951;28;20029;-68
2020/12/13 02:18:50;;;;;;;17.90;12.13;;;;;;;;;;5033751;28;20036;-67
2020/12/13 02:21:16;;;;;;;19.58;13.98;;;;;;;;;;5033930;28;20460;-68
2020/12/13 02:23:44;;;;;;;18.77;12.20;;;;;;;;;;5032400;28;20487;-67
2020/12/13 02:26:16;;;;;;;19.95;13.52;;;;;;;;;;5033634;28;20458;-67
2020/12/13 02:28:42;;;;;;;28.73;17.20;;;;;;;;;;5033662;28;20117;-67
2020/12/13 02:31:08;;;;;;;28.13;18.48;;;;;;;;;;5032325;28;20112;-68
2020/12/13 02:33:36;;;;;;;22.20;13.68;;;;;;;;;;5033649;28;20497;-66
2020/12/13 02:36:02;;;;;;;22.63;13.93;;;;;;;;;;5032263;28;20025;-67
2020/12/13 02:38:28;;;;;;;19.23;13.95;;;;;;;;;;5033715;28;20026;-67
2020/12/13 02:40:54;;;;;;;19.58;12.52;;;;;;;;;;5033456;28;20021;-66
2020/12/13 02:43:19;;;;;;;19.95;12.65;;;;;;;;;;5033139;28;20030;-66
2020/12/13 02:45:45;;;;;;;17.58;12.50;;;;;;;;;;5033436;28;20112;-70
2020/12/13 02:48:10;;;;;;;20.25;11.55;;;;;;;;;;5033473;28;20044;-69
2020/12/13 02:50:35;;;;;;;19.83;11.80;;;;;;;;;;5031755;28;20096;-70
2020/12/13 02:53:02;;;;;;;18.80;12.05;;;;;;;;;;5031735;28;20050;-69
2020/12/13 02:55:27;;;;;;;19.25;12.00;;;;;;;;;;5032178;28;20048;-69
2020/12/13 02:57:53;;;;;;;20.15;11.60;;;;;;;;;;5032169;28;20029;-70
2020/12/13 03:00:18;;;;;;;18.85;12.25;;;;;;;;;;5032278;28;20029;-71
2020/12/13 03:02:44;;;;;;;16.85;10.90;;;;;;;;;;5033510;28;20025;-70
2020/12/13 03:05:09;;;;;;;16.25;10.98;;;;;;;;;;5033496;28;20021;-71
2020/12/13 03:07:35;;;;;;;20.60;12.13;;;;;;;;;;5033269;28;20037;-71
2020/12/13 03:10:00;;;;;;;17.85;11.50;;;;;;;;;;5032148;28;20471;-72
2020/12/13 03:12:27;;;;;;;18.42;11.55;;;;;;;;;;5015369;28;20029;-72
2020/12/13 03:14:53;;;;;;;18.77;11.95;;;;;;;;;;5033078;28;20021;-72
2020/12/13 03:17:19;;;;;;;17.13;11.82;;;;;;;;;;5032007;28;20017;-72
2020/12/13 03:19:44;;;;;;;17.95;11.77;;;;;;;;;;5033136;28;20108;-72
2020/12/13 03:22:10;;;;;;;18.48;12.02;;;;;;;;;;5032888;28;20518;-72
2020/12/13 03:24:35;;;;;;;17.08;11.23;;;;;;;;;;5033081;28;20017;-72
2020/12/13 03:27:01;;;;;;;17.63;11.02;;;;;;;;;;5033149;28;20044;-71
2020/12/13 03:29:27;;;;;;;18.88;12.00;;;;;;;;;;5032214;28;20069;-71
2020/12/13 03:31:52;;;;;;;18.55;11.82;;;;;;;;;;5032941;28;20025;-72
2020/12/13 03:34:18;;;;;;;14.82;10.98;;;;;;;;;;5031714;28;20121;-71
2020/12/13 03:36:43;;;;;;;21.35;12.75;;;;;;;;;;5031761;28;20037;-69
2020/12/13 03:39:09;;;;;;;21.98;15.45;;;;;;;;;;5031894;28;20032;-70
2020/12/13 03:41:34;;;;;;;46.17;37.35;;;;;;;;;;5031686;28;20037;-70
2020/12/13 03:44:00;;;;;;;38.10;31.40;;;;;;;;;;5032882;28;20021;-70
2020/12/13 03:46:25;;;;;;;17.45;12.23;;;;;;;;;;5032768;28;20124;-70
2020/12/13 03:48:50;;;;;;;20.17;13.65;;;;;;;;;;5032956;28;20032;-70
2020/12/13 03:51:16;;;;;;;27.48;22.17;;;;;;;;;;5032468;28;20045;-70
2020/12/13 03:53:41;;;;;;;22.20;14.30;;;;;;;;;;5033168;28;20069;-69
2020/12/13 03:56:07;;;;;;;20.08;14.20;;;;;;;;;;5036571;28;20108;-69
2020/12/13 03:58:33;;;;;;;17.15;11.25;;;;;;;;;;5036454;28;20018;-69
2020/12/13 04:00:58;;;;;;;17.58;11.85;;;;;;;;;;5035387;28;20034;-69
2020/12/13 04:03:24;;;;;;;19.27;11.55;;;;;;;;;;5036349;28;20021;-68
2020/12/13 04:05:49;;;;;;;17.45;11.55;;;;;;;;;;5036161;28;20116;-67
2020/12/13 04:08:15;;;;;;;19.60;11.55;;;;;;;;;;5035197;28;20120;-68
2020/12/13 04:10:40;;;;;;;20.05;12.18;;;;;;;;;;5036304;28;20036;-67
2020/12/13 04:13:06;;;;;;;18.10;12.02;;;;;;;;;;5035111;28;20080;-67
2020/12/13 04:15:31;;;;;;;21.02;11.73;;;;;;;;;;5034926;28;20037;-68
2020/12/13 04:17:57;;;;;;;20.20;12.57;;;;;;;;;;5034740;28;20460;-69
2020/12/13 04:20:22;;;;;;;15.60;10.63;;;;;;;;;;5036178;28;20033;-69
2020/12/13 04:22:48;;;;;;;20.05;11.10;;;;;;;;;;5035103;28;20471;-69
2020/12/13 04:25:13;;;;;;;21.02;12.70;;;;;;;;;;5036039;28;20030;-69
2020/12/13 04:27:39;;;;;;;20.67;12.15;;;;;;;;;;5035943;28;20526;-70
2020/12/13 04:30:05;;;;;;;19.77;13.00;;;;;;;;;;5036073;28;20408;-70
2020/12/13 04:32:30;;;;;;;22.13;12.38;;;;;;;;;;5035723;28;20040;-70
2020/12/13 04:34:56;;;;;;;17.90;11.88;;;;;;;;;;5034786;28;20413;-69
2020/12/13 04:37:23;;;;;;;14.77;11.20;;;;;;;;;;5035761;28;20030;-70
2020/12/13 04:39:50;;;;;;;14.70;10.20;;;;;;;;;;5035794;28;20422;-69
2020/12/13 04:42:16;;;;;;;15.07;10.63;;;;;;;;;;5035530;28;20032;-70
2020/12/13 04:44:41;;;;;;;16.15;10.57;;;;;;;;;;5035751;28;20122;-71
2020/12/13 04:47:07;;;;;;;15.90;10.07;;;;;;;;;;5035447;28;20032;-71
2020/12/13 04:49:34;;;;;;;16.42;10.35;;;;;;;;;;5035412;28;20025;-71
2020/12/13 04:52:00;;;;;;;16.10;10.63;;;;;;;;;;5033866;28;20091;-71
2020/12/13 04:54:26;;;;;;;16.35;10.88;;;;;;;;;;5033953;28;20456;-71
2020/12/13 04:56:52;;;;;;;14.38;10.32;;;;;;;;;;5035456;28;20037;-71
2020/12/13 04:59:18;;;;;;;16.38;11.05;;;;;;;;;;5034034;28;20044;-71
2020/12/13 05:01:45;;;;;;;17.20;10.85;;;;;;;;;;5033901;28;20025;-72
2020/12/13 05:04:11;;;;;;;17.67;10.82;;;;;;;;;;5035448;28;20061;-72
2020/12/13 05:06:37;;;;;;;14.82;10.30;;;;;;;;;;5035196;28;20024;-71
2020/12/13 05:09:07;;;;;;;13.90;10.13;;;;;;;;;;5035089;28;20041;-72
2020/12/13 05:11:33;;;;;;;16.50;11.23;;;;;;;;;;5034957;28;20075;-69
2020/12/13 05:13:58;;;;;;;17.83;11.07;;;;;;;;;;5034964;28;20025;-70
2020/12/13 05:16:24;;;;;;;17.42;10.80;;;;;;;;;;5035112;28;20363;-69
2020/12/13 05:18:51;;;;;;;17.65;11.43;;;;;;;;;;5035075;28;20033;-69
2020/12/13 05:21:20;;;;;;;16.27;11.65;;;;;;;;;;5034823;28;20045;-69
2020/12/13 05:23:46;;;;;;;15.82;10.90;;;;;;;;;;5033563;28;20033;-70
2020/12/13 05:26:11;;;;;;;16.42;11.27;;;;;;;;;;5034769;28;20388;-71
2020/12/13 05:28:37;;;;;;;16.05;10.43;;;;;;;;;;5033770;28;20368;-72
2020/12/13 05:31:04;;;;;;;15.70;10.25;;;;;;;;;;5034644;28;20428;-69
2020/12/13 05:33:35;;;;;;;15.63;10.32;;;;;;;;;;5034436;28;20049;-70
2020/12/13 05:36:01;;;;;;;14.13;10.60;;;;;;;;;;5034504;28;20120;-70
2020/12/13 05:38:31;;;;;;;16.60;10.30;;;;;;;;;;5034434;28;20063;-71
2020/12/13 05:40:57;;;;;;;14.90;10.17;;;;;;;;;;5034756;28;20025;-71
2020/12/13 05:43:24;;;;;;;16.88;10.43;;;;;;;;;;5033287;28;20550;-71
2020/12/13 05:50:55;;;;;;;14.20;9.55;;;;;;;;;;5034179;28;20081;-71
2020/12/13 05:53:21;;;;;;;13.57;9.47;;;;;;;;;;5034496;28;20037;-70
2020/12/13 05:55:47;;;;;;;13.00;9.13;;;;;;;;;;5034185;28;20256;-70
2020/12/13 05:58:12;;;;;;;13.10;9.43;;;;;;;;;;5034222;28;20045;-70
2020/12/13 06:00:38;;;;;;;11.68;9.07;;;;;;;;;;5034154;28;20044;-70
2020/12/13 06:03:05;;;;;;;10.80;8.48;;;;;;;;;;5033077;28;20034;-67
2020/12/13 06:05:34;;;;;;;12.18;8.88;;;;;;;;;;5034112;28;20101;-66
2020/12/13 06:08:01;;;;;;;11.60;8.52;;;;;;;;;;5032648;28;20030;-66
2020/12/13 06:10:32;;;;;;;11.18;8.30;;;;;;;;;;5034088;28;20025;-70
2020/12/13 06:12:59;;;;;;;10.40;8.02;;;;;;;;;;5033946;28;20116;-69
2020/12/13 06:15:26;;;;;;;11.57;7.82;;;;;;;;;;5032998;28;20120;-70
2020/12/13 06:17:52;;;;;;;10.10;7.22;;;;;;;;;;5033512;28;20036;-70
2020/12/13 06:20:17;;;;;;;8.68;7.40;;;;;;;;;;5033891;28;20392;-70
2020/12/13 06:22:44;;;;;;;7.95;7.13;;;;;;;;;;5016193;28;20395;-70
2020/12/13 06:25:10;;;;;;;10.27;7.20;;;;;;;;;;5033809;28;20435;-69
2020/12/13 06:27:35;;;;;;;8.40;6.75;;;;;;;;;;5032265;28;20041;-70
2020/12/13 06:30:01;;;;;;;15.60;11.38;;;;;;;;;;5033753;28;20026;-70
2020/12/13 06:32:37;;;;;;;14.93;11.68;;;;;;;;;;5033603;28;20037;-69
2020/12/13 06:35:03;;;;;;;16.35;11.38;;;;;;;;;;5033833;28;20068;-68
2020/12/13 06:37:29;;;;;;;13.07;9.15;;;;;;;;;;5033597;28;20041;-70
2020/12/13 06:39:55;;;;;;;16.40;10.93;;;;;;;;;;5033673;28;20116;-68
2020/12/13 06:42:27;;;;;;;11.43;8.57;;;;;;;;;;5033521;28;20540;-70
2020/12/13 06:45:07;;;;;;;13.40;8.43;;;;;;;;;;5032609;28;20442;-74
2020/12/13 06:47:37;;;;;;;13.40;8.70;;;;;;;;;;5025591;28;20034;-74
2020/12/13 06:50:02;;;;;;;12.75;8.60;;;;;;;;;;5032624;28;20025;-74
2020/12/13 06:52:32;;;;;;;14.45;9.02;;;;;;;;;;5032583;28;20045;-74
2020/12/13 06:55:07;;;;;;;12.25;9.15;;;;;;;;;;5031293;28;20061;-74
2020/12/13 06:57:33;;;;;;;12.13;8.88;;;;;;;;;;5032402;28;20035;-74
2020/12/13 07:00:03;;;;;;;11.75;8.88;;;;;;;;;;5032646;28;20453;-74
2020/12/13 07:02:44;;;;;;;11.15;8.52;;;;;;;;;;5032866;28;20484;-73
2020/12/13 07:05:09;;;;;;;13.35;9.25;;;;;;;;;;5032456;28;20411;-73
2020/12/13 07:07:36;;;;;;;11.55;8.55;;;;;;;;;;5032311;28;20022;-73
2020/12/13 07:10:06;;;;;;;13.73;9.38;;;;;;;;;;5031207;28;20439;-73
2020/12/13 07:12:32;;;;;;;13.43;8.52;;;;;;;;;;5032555;28;20037;-73
2020/12/13 07:14:57;;;;;;;12.77;8.65;;;;;;;;;;5032205;28;20025;-73
2020/12/13 07:17:28;;;;;;;14.27;8.98;;;;;;;;;;5032413;28;20556;-73
2020/12/13 07:19:55;;;;;;;13.90;8.98;;;;;;;;;;5032778;28;20057;-73
2020/12/13 07:22:20;;;;;;;16.63;10.23;;;;;;;;;;5030629;28;20025;-73
2020/12/13 07:24:46;;;;;;;12.88;8.80;;;;;;;;;;5032433;28;20525;-73
2020/12/13 07:27:12;;;;;;;16.05;9.20;;;;;;;;;;5030943;28;20482;-73
2020/12/13 07:29:37;;;;;;;13.52;9.20;;;;;;;;;;5036038;28;20071;-73
2020/12/13 07:32:06;;;;;;;12.80;9.15;;;;;;;;;;5036325;28;20388;-73
2020/12/13 07:34:32;;;;;;;12.32;8.60;;;;;;;;;;5036381;28;20039;-73
2020/12/13 07:37:01;;;;;;;21.70;14.55;;;;;;;;;;5035793;28;20026;-73
2020/12/13 07:39:29;;;;;;;25.92;12.98;;;;;;;;;;5036067;28;20109;-73
2020/12/13 07:41:54;;;;;;;15.02;9.82;;;;;;;;;;5036166;28;20022;-73
2020/12/13 07:44:29;;;;;;;11.30;8.55;;;;;;;;;;5034706;28;20108;-73
2020/12/13 07:46:57;;;;;;;12.90;8.30;;;;;;;;;;5035585;28;20563;-73
2020/12/13 07:49:23;;;;;;;12.65;8.82;;;;;;;;;;5035713;28;20108;-73
2020/12/13 07:51:50;;;;;;;12.48;8.63;;;;;;;;;;5033837;28;20469;-73
2020/12/13 07:54:15;;;;;;;11.52;8.55;;;;;;;;;;5035504;28;20026;-72
2020/12/13 07:56:42;;;;;;;12.45;7.82;;;;;;;;;;5034324;28;20036;-72
2020/12/13 07:59:09;;;;;;;13.50;9.75;;;;;;;;;;5034265;28;20045;-73
2020/12/13 08:01:34;;;;;;;12.40;9.80;;;;;;;;;;5034392;28;20029;-72
2020/12/13 08:04:00;;;;;;;8.98;8.07;;;;;;;;;;5067741;28;20028;-72
2020/12/13 08:06:26;;;;;;;11.55;8.10;;;;;;;;;;5034044;28;20037;-73
2020/12/13 08:08:51;;;;;;;9.23;7.28;;;;;;;;;;5035558;28;20361;-73
2020/12/13 08:11:17;;;;;;;13.60;8.32;;;;;;;;;;5035440;28;20037;-73
2020/12/13 08:13:50;;;;;;;16.90;9.75;;;;;;;;;;5035521;28;20040;-73
2020/12/13 08:16:16;;;;;;;19.55;15.35;;;;;;;;;;5034704;28;20037;-72
2020/12/13 08:18:46;;;;;;;12.05;9.40;;;;;;;;;;5034965;28;20083;-68
2020/12/13 08:21:12;;;;;;;15.68;12.80;;;;;;;;;;5036216;28;20108;-68
2020/12/13 08:23:38;;;;;;;36.38;27.70;;;;;;;;;;5036124;28;20021;-68
2020/12/13 08:26:05;;;;;;;25.45;22.13;;;;;;;;;;5035966;28;20026;-68
2020/12/13 08:28:30;;;;;;;9.82;7.13;;;;;;;;;;5035596;28;20017;-68
2020/12/13 08:30:58;;;;;;;25.85;18.88;;;;;;;;;;5032969;28;20033;-68
2020/12/13 08:33:24;;;;;;;35.67;25.95;;;;;;;;;;5033955;28;20013;-68
2020/12/13 08:35:49;;;;;;;18.83;12.85;;;;;;;;;;5034703;28;20167;-68
2020/12/13 08:38:14;;;;;;;59.15;35.78;;;;;;;;;;5034838;28;20041;-68
2020/12/13 08:40:41;;;;;;;17.33;11.85;;;;;;;;;;5034090;28;20029;-68
2020/12/13 08:43:07;;;;;;;12.85;8.70;;;;;;;;;;5034955;28;20028;-68
2020/12/13 08:45:33;;;;;;;9.48;7.53;;;;;;;;;;5035265;28;20116;-68
2020/12/13 08:47:59;;;;;;;10.10;7.70;;;;;;;;;;5035451;28;20013;-68
2020/12/13 08:50:25;;;;;;;82.95;40.83;;;;;;;;;;5035268;28;20029;-68
2020/12/13 08:52:51;;;;;;;76.78;40.40;;;;;;;;;;5017635;28;20116;-68
2020/12/13 08:55:23;;;;;;;8.90;7.32;;;;;;;;;;5035181;28;20402;-68
2020/12/13 08:57:58;;;;;;;63.95;31.55;;;;;;;;;;5035250;28;20105;-68
2020/12/13 09:00:27;;;;;;;40.47;25.77;;;;;;;;;;5035387;28;20025;-68
2020/12/13 09:03:03;;;;;;;328.33;231.35;;;;;;;;;;5035119;28;20021;-68
2020/12/13 09:05:33;;;;;;;46.38;31.90;;;;;;;;;;5035127;28;20029;-68
2020/12/13 09:07:59;;;;;;;11.52;9.20;;;;;;;;;;5035123;28;20052;-68
2020/12/13 09:10:25;;;;;;;13.05;8.75;;;;;;;;;;5034398;28;20480;-68
2020/12/13 09:12:50;;;;;;;8.52;7.15;;;;;;;;;;5034740;28;20052;-68
2020/12/13 09:15:17;;;;;;;17.42;11.50;;;;;;;;;;5034839;28;20021;-68
2020/12/13 09:17:57;;;;;;;16.38;13.40;;;;;;;;;;5033452;28;20013;-68
2020/12/13 09:20:23;;;;;;;11.10;7.78;;;;;;;;;;5033570;28;20036;-68
2020/12/13 09:22:58;;;;;;;9.05;6.75;;;;;;;;;;5034671;28;20026;-68
2020/12/13 09:25:24;;;;;;;10.43;7.07;;;;;;;;;;5033535;28;20377;-68
2020/12/13 09:27:49;;;;;;;8.68;7.00;;;;;;;;;;5034551;28;20032;-68
2020/12/13 09:30:14;;;;;;;10.32;7.38;;;;;;;;;;5034628;28;20036;-68
2020/12/13 09:32:40;;;;;;;9.32;7.47;;;;;;;;;;5034473;28;20554;-68
2020/12/13 09:35:05;;;;;;;9.65;7.32;;;;;;;;;;5034380;28;20472;-68
2020/12/13 09:37:31;;;;;;;9.30;7.00;;;;;;;;;;5034459;28;20371;-68
2020/12/13 09:39:56;;;;;;;10.85;7.70;;;;;;;;;;5034344;28;20018;-68
2020/12/13 09:42:21;;;;;;;13.52;8.80;;;;;;;;;;5034323;28;20017;-68
2020/12/13 09:44:49;;;;;;;22.30;16.00;;;;;;;;;;5034274;28;20087;-68
2020/12/13 09:47:15;;;;;;;30.33;18.92;;;;;;;;;;5033004;28;20026;-68
2020/12/13 09:49:40;;;;;;;13.35;10.07;;;;;;;;;;5034231;28;20136;-68
2020/12/13 09:52:06;;;;;;;9.07;7.95;;;;;;;;;;5032911;28;20064;-68
2020/12/13 09:54:33;;;;;;;10.20;8.45;;;;;;;;;;5033939;28;20040;-68
2020/12/13 09:56:58;;;;;;;15.60;10.45;;;;;;;;;;5034009;28;20024;-69
2020/12/13 09:59:25;;;;;;;47.28;30.70;;;;;;;;;;5033924;28;20033;-69
2020/12/13 10:01:50;;;;;;;24.65;16.75;;;;;;;;;;5032601;28;20063;-69
2020/12/13 10:04:18;;;;;;;19.73;15.63;;;;;;;;;;5034042;28;20049;-69
2020/12/13 10:09:19;;;;;;;29.65;22.65;;;;;;;;;;5033926;28;20036;-69
2020/12/13 10:11:45;;;;;;;19.83;13.20;;;;;;;;;;5033863;28;20017;-69
2020/12/13 10:14:11;;;;;;;20.35;14.18;;;;;;;;;;5033912;28;20032;-69
2020/12/13 10:16:38;;;;;;;19.95;12.95;;;;;;;;;;5033755;28;20380;-69
2020/12/13 10:19:03;;;;;;;53.47;27.60;;;;;;;;;;5033710;28;20117;-69
2020/12/13 10:21:30;;;;;;;101.70;49.67;;;;;;;;;;5033618;28;20530;-69
2020/12/13 10:23:56;;;;;;;137.07;62.55;;;;;;;;;;5033605;28;20030;-68
2020/12/13 10:26:25;;;;;;;316.92;131.82;;;;;;;;;;5033492;28;20047;-68
2020/12/13 10:28:51;;;;;;;202.00;86.32;;;;;;;;;;5033464;28;20030;-68
2020/12/13 10:31:17;;;;;;;53.25;26.67;;;;;;;;;;5033421;28;20076;-69
2020/12/13 10:33:45;;;;;;;17.48;12.98;;;;;;;;;;5032164;28;20029;-68
2020/12/13 10:36:12;;;;;;;31.65;20.42;;;;;;;;;;5033367;28;20025;-68
2020/12/13 10:38:37;;;;;;;133.63;106.18;;;;;;;;;;5033487;28;20055;-68
2020/12/13 10:41:03;;;;;;;32.55;27.50;;;;;;;;;;5033319;28;20053;-69
2020/12/13 10:43:29;;;;;;;93.93;84.05;;;;;;;;;;5033306;28;20037;-68
2020/12/13 10:45:54;;;;;;;53.85;44.35;;;;;;;;;;5033253;28;20022;-70
2020/12/13 10:48:20;;;;;;;23.45;20.90;;;;;;;;;;5033253;28;20033;-70
2020/12/13 10:50:45;;;;;;;25.80;21.50;;;;;;;;;;5031619;28;20041;-70
2020/12/13 10:53:11;;;;;;;21.35;18.65;;;;;;;;;;5033324;28;20357;-70
2020/12/13 10:55:36;;;;;;;40.33;29.85;;;;;;;;;;5032972;28;20026;-70
2020/12/13 10:58:02;;;;;;;16.67;13.43;;;;;;;;;;5015390;28;20041;-64
2020/12/13 11:00:27;;;;;;;33.42;24.35;;;;;;;;;;5031801;28;20020;-66
2020/12/13 11:02:53;;;;;;;16.73;14.40;;;;;;;;;;5032810;28;20095;-67
2020/12/13 11:05:19;;;;;;;12.88;10.32;;;;;;;;;;5031761;28;20522;-69
2020/12/13 11:07:44;;;;;;;9.77;8.70;;;;;;;;;;5031799;28;20072;-72
2020/12/13 11:10:10;;;;;;;18.00;13.05;;;;;;;;;;5031909;28;20017;-70
2020/12/13 11:12:35;;;;;;;19.23;15.93;;;;;;;;;;5032935;28;20484;-70
2020/12/13 11:15:01;;;;;;;59.35;47.28;;;;;;;;;;5033069;28;20017;-70
2020/12/13 11:17:26;;;;;;;52.45;45.47;;;;;;;;;;5032898;28;20384;-68
2020/12/13 11:19:55;;;;;;;145.90;79.35;;;;;;;;;;5032889;28;20029;-69
2020/12/13 11:22:20;;;;;;;185.38;84.05;;;;;;;;;;5032824;28;20407;-70
2020/12/13 11:24:46;;;;;;;40.33;20.88;;;;;;;;;;5032812;28;20014;-70
2020/12/13 11:27:11;;;;;;;54.70;28.65;;;;;;;;;;5031682;28;20036;-70
2020/12/13 11:29:37;;;;;;;32.72;18.85;;;;;;;;;;5033067;28;20026;-70
2020/12/13 11:32:02;;;;;;;215.07;115.60;;;;;;;;;;5033176;28;20037;-70
2020/12/13 11:34:31;;;;;;;901.50;472.55;;;;;;;;;;5031264;28;20025;-70
2020/12/13 11:36:56;;;;;;;707.40;339.02;;;;;;;;;;5030561;28;20026;-70
2020/12/13 11:39:22;;;;;;;147.95;62.75;;;;;;;;;;5033182;28;20022;-70
2020/12/13 11:41:47;;;;;;;252.38;105.97;;;;;;;;;;5031633;28;20053;-70
2020/12/13 11:44:13;;;;;;;67.00;41.63;;;;;;;;;;5032470;28;20017;-70
2020/12/13 11:46:39;;;;;;;27.58;18.40;;;;;;;;;;5032542;28;20107;-70
2020/12/13 11:49:04;;;;;;;59.83;38.45;;;;;;;;;;5032658;28;20021;-70
2020/12/13 11:51:30;;;;;;;39.60;27.73;;;;;;;;;;5031972;28;20063;-70
2020/12/13 11:53:55;;;;;;;44.20;29.00;;;;;;;;;;5032000;28;20036;-70
2020/12/13 11:56:24;;;;;;;33.35;23.02;;;;;;;;;;5031353;28;20426;-70
2020/12/13 11:58:49;;;;;;;37.72;29.17;;;;;;;;;;5032515;28;20022;-70
2020/12/13 12:01:19;;;;;;;23.05;18.02;;;;;;;;;;5032588;28;20031;-70
2020/12/13 12:03:45;;;;;;;27.45;21.65;;;;;;;;;;5032581;28;20480;-70
2020/12/13 12:06:12;;;;;;;17.13;11.75;;;;;;;;;;5032395;28;20026;-70
2020/12/13 12:08:37;;;;;;;30.23;16.73;;;;;;;;;;5032397;28;20064;-70
2020/12/13 12:11:03;;;;;;;41.30;19.95;;;;;;;;;;5032373;28;20053;-70
2020/12/13 12:13:28;;;;;;;75.20;31.38;;;;;;;;;;5014529;28;20030;-70
2020/12/13 12:15:53;;;;;;;29.85;19.08;;;;;;;;;;5034546;28;20044;-70
2020/12/13 12:18:19;;;;;;;33.58;23.02;;;;;;;;;;5036033;28;20056;-70
2020/12/13 12:20:44;;;;;;;41.55;19.92;;;;;;;;;;5035872;28;20013;-70
2020/12/13 12:23:10;;;;;;;20.30;14.85;;;;;;;;;;5034563;28;20021;-70
2020/12/13 12:25:36;;;;;;;24.27;15.20;;;;;;;;;;5035814;28;20383;-70
2020/12/13 12:28:02;;;;;;;30.90;19.02;;;;;;;;;;5035755;28;20057;-69
2020/12/13 12:30:27;;;;;;;172.63;72.43;;;;;;;;;;5035592;28;20107;-70
2020/12/13 12:32:53;;;;;;;208.10;83.32;;;;;;;;;;5035736;28;20029;-70
2020/12/13 12:35:18;;;;;;;190.13;81.18;;;;;;;;;;5035636;28;20017;-70
2020/12/13 12:37:44;;;;;;;24.02;14.98;;;;;;;;;;5034262;28;20120;-70
2020/12/13 12:40:09;;;;;;;25.38;15.88;;;;;;;;;;5034256;28;20018;-70
2020/12/13 12:42:35;;;;;;;18.23;13.52;;;;;;;;;;5034416;28;20040;-70
2020/12/13 12:45:02;;;;;;;21.98;15.23;;;;;;;;;;5035475;28;20464;-70
2020/12/13 12:47:31;;;;;;;27.33;17.38;;;;;;;;;;5035333;28;20029;-70
2020/12/13 12:49:57;;;;;;;44.10;23.23;;;;;;;;;;5034156;28;20076;-70
2020/12/13 12:52:22;;;;;;;45.30;23.02;;;;;;;;;;5035154;28;20345;-70
2020/12/13 12:54:48;;;;;;;30.92;17.10;;;;;;;;;;5035162;28;20555;-70
2020/12/13 12:57:13;;;;;;;41.17;21.13;;;;;;;;;;5035180;28;20507;-70
2020/12/13 13:02:23;;;;;;;44.70;25.70;;;;;;;;;;5033867;28;20041;-70
2020/12/13 13:04:58;;;;;;;117.78;54.60;;;;;;;;;;5033874;28;20026;-70
2020/12/13 13:07:28;;;;;;;152.65;71.45;;;;;;;;;;5035014;28;20033;-70
2020/12/13 13:09:59;;;;;;;260.25;108.13;;;;;;;;;;5033732;28;20017;-70
2020/12/13 13:12:25;;;;;;;170.68;73.47;;;;;;;;;;5033571;28;20429;-70
2020/12/13 13:14:52;;;;;;;230.40;99.38;;;;;;;;;;5034828;28;20009;-70
2020/12/13 13:17:29;;;;;;;162.57;88.00;;;;;;;;;;5017444;28;20068;-70
2020/12/13 13:19:56;;;;;;;70.47;44.50;;;;;;;;;;5034953;28;20040;-70
2020/12/13 13:22:22;;;;;;;59.78;37.47;;;;;;;;;;5034763;28;20129;-70
2020/12/13 13:24:47;;;;;;;29.90;19.27;;;;;;;;;;5033638;28;20040;-70
2020/12/13 13:27:13;;;;;;;58.03;41.45;;;;;;;;;;5034533;28;20021;-70
2020/12/13 13:29:38;;;;;;;25.00;16.70;;;;;;;;;;5034606;28;20118;-70
2020/12/13 13:32:04;;;;;;;40.22;23.73;;;;;;;;;;5034450;28;20021;-70
2020/12/13 13:34:29;;;;;;;74.93;43.22;;;;;;;;;;5034453;28;20017;-70
2020/12/13 13:36:57;;;;;;;87.30;50.55;;;;;;;;;;5034431;28;20024;-70
2020/12/13 13:39:23;;;;;;;95.82;56.92;;;;;;;;;;5034451;28;20102;-70
2020/12/13 13:41:50;;;;;;;58.75;39.00;;;;;;;;;;5034413;28;20057;-70
2020/12/13 13:44:23;;;;;;;57.15;38.13;;;;;;;;;;5034142;28;20025;-70
2020/12/13 13:49:26;;;;;;;32.95;20.98;;;;;;;;;;5032923;28;20384;-70
2020/12/13 13:51:52;;;;;;;28.38;18.90;;;;;;;;;;5033588;28;20567;-70
2020/12/13 13:54:19;;;;;;;22.58;15.27;;;;;;;;;;5032826;28;20107;-70
2020/12/13 13:56:58;;;;;;;22.05;14.95;;;;;;;;;;5032764;28;20444;-70
2020/12/13 13:59:27;;;;;;;26.17;17.08;;;;;;;;;;5034101;28;20029;-70
2020/12/13 14:01:53;;;;;;;28.45;18.85;;;;;;;;;;5032699;28;20036;-70
2020/12/13 14:04:18;;;;;;;41.35;22.75;;;;;;;;;;5033839;28;20095;-70
2020/12/13 14:09:31;;;;;;;52.10;27.30;;;;;;;;;;5033988;28;20033;-70
2020/12/13 14:11:57;;;;;;;48.40;25.25;;;;;;;;;;5033705;28;20033;-70
2020/12/13 14:14:23;;;;;;;31.75;18.80;;;;;;;;;;5032293;28;20029;-70
2020/12/13 14:16:50;;;;;;;35.47;19.13;;;;;;;;;;5032441;28;20468;-70
2020/12/13 14:19:17;;;;;;;37.15;21.33;;;;;;;;;;5039204;28;20033;-70
2020/12/13 14:21:43;;;;;;;39.50;21.13;;;;;;;;;;5040667;28;20033;-70
2020/12/13 14:24:08;;;;;;;39.08;21.30;;;;;;;;;;5017888;28;20369;-71
2020/12/13 14:26:36;;;;;;;27.92;17.55;;;;;;;;;;5032684;28;20029;-70
2020/12/13 14:29:03;;;;;;;24.77;16.80;;;;;;;;;;5032852;28;20032;-67
2020/12/13 14:31:29;;;;;;;24.27;17.00;;;;;;;;;;5032824;28;20434;-67
2020/12/13 14:33:57;;;;;;;25.10;16.73;;;;;;;;;;5032484;28;20108;-67